sensor_id;sensor_type;location;lat;lon;timestamp;temperature;humidity
39099;DHT22;24844;52.380;7.018;2023-07-31T00:00:48;15.30;99.90
39099;DHT22;24844;52.380;7.018;2023-07-31T00:03:14;15.40;99.90
39099;DHT22;24844;52.380;7.018;2023-07-31T00:05:39;15.40;99.90
39099;DHT22;24844;52.380;7.018;2023-07-31T00:08:05;15.40;99.90
39099;DHT22;24844;52.380;7.018;2023-07-31T00:10:30;15.60;99.90
39099;DHT22;24844;52.380;7.018;2023-07-31T00:12:56;15.50;99.90
39099;DHT22;24844;52.380;7.018;2023-07-31T00:15:22;15.40;99.90
39099;DHT22;24844;52.380;7.018;2023-07-31T00:17:47;15.60;99.90
39099;DHT22;24844;52.380;7.018;2023-07-31T00:20:13;15.40;99.90
39099;DHT22;24844;52.380;7.018;2023-07-31T00:22:39;15.30;99.90
39099;DHT22;24844;52.380;7.018;2023-07-31T00:25:04;15.20;99.90
39099;DHT22;24844;52.380;7.018;2023-07-31T00:27:32;15.30;99.90
39099;DHT22;24844;52.380;7.018;2023-07-31T00:29:57;15.40;99.90
39099;DHT22;24844;52.380;7.018;2023-07-31T00:32:23;15.30;99.90
39099;DHT22;24844;52.380;7.018;2023-07-31T00:34:49;15.30;99.90
39099;DHT22;24844;52.380;7.018;2023-07-31T00:37:14;15.30;99.90
39099;DHT22;24844;52.380;7.018;2023-07-31T00:39:41;15.40;99.90
39099;DHT22;24844;52.380;7.018;2023-07-31T00:42:06;15.30;99.90
39099;DHT22;24844;52.380;7.018;2023-07-31T00:44:32;15.30;99.90
39099;DHT22;24844;52.380;7.018;2023-07-31T00:46:58;15.30;99.90
39099;DHT22;24844;52.380;7.018;2023-07-31T00:49:25;15.40;99.90
39099;DHT22;24844;52.380;7.018;2023-07-31T00:51:52;15.40;99.90
39099;DHT22;24844;52.380;7.018;2023-07-31T00:54:18;15.40;99.90
39099;DHT22;24844;52.380;7.018;2023-07-31T00:56:45;15.40;99.90
39099;DHT22;24844;52.380;7.018;2023-07-31T00:59:11;15.50;99.90
39099;DHT22;24844;52.380;7.018;2023-07-31T01:01:37;15.60;99.90
39099;DHT22;24844;52.380;7.018;2023-07-31T01:04:04;15.70;99.90
39099;DHT22;24844;52.380;7.018;2023-07-31T01:11:38;15.60;99.90
39099;DHT22;24844;52.380;7.018;2023-07-31T01:14:07;15.50;99.90
39099;DHT22;24844;52.380;7.018;2023-07-31T01:16:36;15.60;99.90
39099;DHT22;24844;52.380;7.018;2023-07-31T01:19:02;15.70;99.90
39099;DHT22;24844;52.380;7.018;2023-07-31T01:21:47;15.50;99.90
39099;DHT22;24844;52.380;7.018;2023-07-31T01:24:54;15.40;99.90
39099;DHT22;24844;52.380;7.018;2023-07-31T01:27:25;15.30;99.90
39099;DHT22;24844;52.380;7.018;2023-07-31T01:29:56;15.40;99.90
39099;DHT22;24844;52.380;7.018;2023-07-31T01:32:25;15.50;99.90
39099;DHT22;24844;52.380;7.018;2023-07-31T01:34:53;15.50;99.90
39099;DHT22;24844;52.380;7.018;2023-07-31T01:37:20;15.60;99.90
39099;DHT22;24844;52.380;7.018;2023-07-31T01:39:45;15.60;99.90
39099;DHT22;24844;52.380;7.018;2023-07-31T01:42:11;15.40;99.90
39099;DHT22;24844;52.380;7.018;2023-07-31T01:44:37;15.50;99.90
39099;DHT22;24844;52.380;7.018;2023-07-31T01:47:02;15.60;99.90
39099;DHT22;24844;52.380;7.018;2023-07-31T01:49:28;15.50;99.90
39099;DHT22;24844;52.380;7.018;2023-07-31T01:51:54;15.60;99.90
39099;DHT22;24844;52.380;7.018;2023-07-31T01:54:19;15.60;99.90
39099;DHT22;24844;52.380;7.018;2023-07-31T01:56:45;15.70;99.90
39099;DHT22;24844;52.380;7.018;2023-07-31T01:59:10;15.60;99.90
39099;DHT22;24844;52.380;7.018;2023-07-31T02:01:36;15.50;99.90
39099;DHT22;24844;52.380;7.018;2023-07-31T02:04:02;15.70;99.90
39099;DHT22;24844;52.380;7.018;2023-07-31T02:06:28;15.50;99.90
39099;DHT22;24844;52.380;7.018;2023-07-31T02:08:53;15.50;99.90
39099;DHT22;24844;52.380;7.018;2023-07-31T02:11:19;15.40;99.90
39099;DHT22;24844;52.380;7.018;2023-07-31T02:13:44;15.60;99.90
39099;DHT22;24844;52.380;7.018;2023-07-31T02:16:10;15.50;99.90
39099;DHT22;24844;52.380;7.018;2023-07-31T02:18:36;15.30;99.90
39099;DHT22;24844;52.380;7.018;2023-07-31T02:21:02;15.30;99.90
39099;DHT22;24844;52.380;7.018;2023-07-31T02:23:27;15.70;99.90
39099;DHT22;24844;52.380;7.018;2023-07-31T02:25:53;15.40;99.90
39099;DHT22;24844;52.380;7.018;2023-07-31T02:28:18;15.50;99.90
39099;DHT22;24844;52.380;7.018;2023-07-31T02:30:45;15.50;99.90
39099;DHT22;24844;52.380;7.018;2023-07-31T02:33:11;15.60;99.90
39099;DHT22;24844;52.380;7.018;2023-07-31T02:35:37;15.60;99.90
39099;DHT22;24844;52.380;7.018;2023-07-31T02:38:02;15.70;99.90
39099;DHT22;24844;52.380;7.018;2023-07-31T02:40:28;15.60;99.90
39099;DHT22;24844;52.380;7.018;2023-07-31T02:42:53;15.90;99.90
39099;DHT22;24844;52.380;7.018;2023-07-31T02:45:20;15.80;99.90
39099;DHT22;24844;52.380;7.018;2023-07-31T02:47:46;15.90;99.90
39099;DHT22;24844;52.380;7.018;2023-07-31T02:50:12;15.60;99.90
39099;DHT22;24844;52.380;7.018;2023-07-31T02:52:37;15.60;99.90
39099;DHT22;24844;52.380;7.018;2023-07-31T02:55:03;15.80;99.90
39099;DHT22;24844;52.380;7.018;2023-07-31T02:57:29;15.90;99.90
39099;DHT22;24844;52.380;7.018;2023-07-31T02:59:56;15.90;99.90
39099;DHT22;24844;52.380;7.018;2023-07-31T03:02:22;16.00;99.90
39099;DHT22;24844;52.380;7.018;2023-07-31T03:04:47;15.80;99.90
39099;DHT22;24844;52.380;7.018;2023-07-31T03:07:13;15.90;99.90
39099;DHT22;24844;52.380;7.018;2023-07-31T03:09:39;15.80;99.90
39099;DHT22;24844;52.380;7.018;2023-07-31T03:12:04;15.80;99.90
39099;DHT22;24844;52.380;7.018;2023-07-31T03:14:30;15.80;99.90
39099;DHT22;24844;52.380;7.018;2023-07-31T03:16:56;15.90;99.90
39099;DHT22;24844;52.380;7.018;2023-07-31T03:19:22;15.80;99.90
39099;DHT22;24844;52.380;7.018;2023-07-31T03:21:48;16.00;99.90
39099;DHT22;24844;52.380;7.018;2023-07-31T03:24:13;15.90;99.90
39099;DHT22;24844;52.380;7.018;2023-07-31T03:26:39;15.90;99.90
39099;DHT22;24844;52.380;7.018;2023-07-31T03:29:07;16.00;99.90
39099;DHT22;24844;52.380;7.018;2023-07-31T03:31:33;16.10;99.90
39099;DHT22;24844;52.380;7.018;2023-07-31T03:33:58;16.10;99.90
39099;DHT22;24844;52.380;7.018;2023-07-31T03:36:24;16.20;99.90
39099;DHT22;24844;52.380;7.018;2023-07-31T03:38:50;16.20;99.90
39099;DHT22;24844;52.380;7.018;2023-07-31T03:41:16;15.90;99.90
39099;DHT22;24844;52.380;7.018;2023-07-31T03:43:42;16.10;99.90
39099;DHT22;24844;52.380;7.018;2023-07-31T03:46:07;16.00;99.90
39099;DHT22;24844;52.380;7.018;2023-07-31T03:48:33;16.40;99.90
39099;DHT22;24844;52.380;7.018;2023-07-31T03:50:58;16.40;99.90
39099;DHT22;24844;52.380;7.018;2023-07-31T03:53:24;16.40;99.90
39099;DHT22;24844;52.380;7.018;2023-07-31T03:55:49;16.30;99.90
39099;DHT22;24844;52.380;7.018;2023-07-31T03:58:15;16.40;99.90
39099;DHT22;24844;52.380;7.018;2023-07-31T04:00:41;16.60;99.90
39099;DHT22;24844;52.380;7.018;2023-07-31T04:03:06;16.60;99.90
39099;DHT22;24844;52.380;7.018;2023-07-31T04:05:32;16.50;99.90
39099;DHT22;24844;52.380;7.018;2023-07-31T04:07:58;16.30;99.90
39099;DHT22;24844;52.380;7.018;2023-07-31T04:10:24;16.20;99.90
39099;DHT22;24844;52.380;7.018;2023-07-31T04:12:49;16.30;99.90
39099;DHT22;24844;52.380;7.018;2023-07-31T04:15:15;16.40;99.90
39099;DHT22;24844;52.380;7.018;2023-07-31T04:17:41;16.50;99.90
39099;DHT22;24844;52.380;7.018;2023-07-31T04:20:07;16.50;99.90
39099;DHT22;24844;52.380;7.018;2023-07-31T04:22:33;16.50;99.90
39099;DHT22;24844;52.380;7.018;2023-07-31T04:24:58;16.70;99.90
39099;DHT22;24844;52.380;7.018;2023-07-31T04:27:25;16.40;99.90
39099;DHT22;24844;52.380;7.018;2023-07-31T04:29:51;16.70;99.90
39099;DHT22;24844;52.380;7.018;2023-07-31T04:32:17;16.60;99.90
39099;DHT22;24844;52.380;7.018;2023-07-31T04:34:43;16.80;99.90
39099;DHT22;24844;52.380;7.018;2023-07-31T04:37:09;16.40;99.90
39099;DHT22;24844;52.380;7.018;2023-07-31T04:39:34;16.60;99.90
39099;DHT22;24844;52.380;7.018;2023-07-31T04:42:00;16.40;99.90
39099;DHT22;24844;52.380;7.018;2023-07-31T04:44:25;16.60;99.90
39099;DHT22;24844;52.380;7.018;2023-07-31T04:46:51;16.00;99.90
39099;DHT22;24844;52.380;7.018;2023-07-31T04:49:17;16.30;99.90
39099;DHT22;24844;52.380;7.018;2023-07-31T04:51:42;16.20;99.90
39099;DHT22;24844;52.380;7.018;2023-07-31T04:54:08;16.60;99.90
39099;DHT22;24844;52.380;7.018;2023-07-31T04:56:34;16.50;99.90
39099;DHT22;24844;52.380;7.018;2023-07-31T04:58:59;16.30;99.90
39099;DHT22;24844;52.380;7.018;2023-07-31T05:01:25;16.60;99.90
39099;DHT22;24844;52.380;7.018;2023-07-31T05:03:51;16.30;99.90
39099;DHT22;24844;52.380;7.018;2023-07-31T05:06:16;16.20;99.90
39099;DHT22;24844;52.380;7.018;2023-07-31T05:08:42;16.60;99.90
39099;DHT22;24844;52.380;7.018;2023-07-31T05:11:08;16.40;99.90
39099;DHT22;24844;52.380;7.018;2023-07-31T05:13:33;16.60;99.90
39099;DHT22;24844;52.380;7.018;2023-07-31T05:15:59;16.50;99.90
39099;DHT22;24844;52.380;7.018;2023-07-31T05:18:25;16.60;99.90
39099;DHT22;24844;52.380;7.018;2023-07-31T05:20:50;16.30;99.90
39099;DHT22;24844;52.380;7.018;2023-07-31T05:23:16;16.40;99.90
39099;DHT22;24844;52.380;7.018;2023-07-31T05:25:41;16.30;99.90
39099;DHT22;24844;52.380;7.018;2023-07-31T05:28:07;16.70;99.90
39099;DHT22;24844;52.380;7.018;2023-07-31T05:30:33;16.60;99.90
39099;DHT22;24844;52.380;7.018;2023-07-31T05:32:59;16.60;99.90
39099;DHT22;24844;52.380;7.018;2023-07-31T05:35:24;16.60;99.90
39099;DHT22;24844;52.380;7.018;2023-07-31T05:37:50;16.50;99.90
39099;DHT22;24844;52.380;7.018;2023-07-31T05:40:15;16.20;99.90
39099;DHT22;24844;52.380;7.018;2023-07-31T05:42:41;16.40;99.90
39099;DHT22;24844;52.380;7.018;2023-07-31T05:45:07;16.20;99.90
39099;DHT22;24844;52.380;7.018;2023-07-31T05:47:33;16.20;99.90
39099;DHT22;24844;52.380;7.018;2023-07-31T05:49:59;16.70;99.90
39099;DHT22;24844;52.380;7.018;2023-07-31T05:52:24;16.30;99.90
39099;DHT22;24844;52.380;7.018;2023-07-31T05:54:51;16.20;99.90
39099;DHT22;24844;52.380;7.018;2023-07-31T05:57:17;16.10;99.90
39099;DHT22;24844;52.380;7.018;2023-07-31T05:59:42;16.50;99.90
39099;DHT22;24844;52.380;7.018;2023-07-31T06:02:08;16.10;99.90
39099;DHT22;24844;52.380;7.018;2023-07-31T06:04:33;16.10;99.90
39099;DHT22;24844;52.380;7.018;2023-07-31T06:06:59;16.30;99.90
39099;DHT22;24844;52.380;7.018;2023-07-31T06:09:25;16.50;99.90
39099;DHT22;24844;52.380;7.018;2023-07-31T06:11:51;16.50;99.90
39099;DHT22;24844;52.380;7.018;2023-07-31T06:14:17;16.60;99.90
39099;DHT22;24844;52.380;7.018;2023-07-31T06:16:44;16.30;99.90
39099;DHT22;24844;52.380;7.018;2023-07-31T06:19:09;15.80;99.90
39099;DHT22;24844;52.380;7.018;2023-07-31T06:21:37;15.90;99.90
39099;DHT22;24844;52.380;7.018;2023-07-31T06:24:04;16.50;99.90
39099;DHT22;24844;52.380;7.018;2023-07-31T06:26:29;16.50;99.90
39099;DHT22;24844;52.380;7.018;2023-07-31T06:28:55;16.20;99.90
39099;DHT22;24844;52.380;7.018;2023-07-31T06:31:21;16.50;99.90
39099;DHT22;24844;52.380;7.018;2023-07-31T06:33:49;16.50;99.90
39099;DHT22;24844;52.380;7.018;2023-07-31T06:36:15;16.60;99.90
39099;DHT22;24844;52.380;7.018;2023-07-31T06:38:40;16.60;99.90
39099;DHT22;24844;52.380;7.018;2023-07-31T06:41:06;16.20;99.90
39099;DHT22;24844;52.380;7.018;2023-07-31T06:43:32;16.10;99.90
39099;DHT22;24844;52.380;7.018;2023-07-31T06:45:57;16.20;99.90
39099;DHT22;24844;52.380;7.018;2023-07-31T06:48:23;16.50;99.90
39099;DHT22;24844;52.380;7.018;2023-07-31T06:50:49;16.60;99.90
39099;DHT22;24844;52.380;7.018;2023-07-31T06:53:15;16.40;99.90
39099;DHT22;24844;52.380;7.018;2023-07-31T06:55:41;16.20;99.90
39099;DHT22;24844;52.380;7.018;2023-07-31T06:58:07;15.90;99.90
39099;DHT22;24844;52.380;7.018;2023-07-31T07:00:33;16.40;99.90
39099;DHT22;24844;52.380;7.018;2023-07-31T07:02:58;16.30;99.90
39099;DHT22;24844;52.380;7.018;2023-07-31T07:05:24;16.00;99.90
39099;DHT22;24844;52.380;7.018;2023-07-31T07:07:50;15.90;99.90
39099;DHT22;24844;52.380;7.018;2023-07-31T07:10:17;16.00;99.90
39099;DHT22;24844;52.380;7.018;2023-07-31T07:12:43;16.20;99.90
39099;DHT22;24844;52.380;7.018;2023-07-31T07:15:08;16.40;99.90
39099;DHT22;24844;52.380;7.018;2023-07-31T07:17:34;16.50;99.90
39099;DHT22;24844;52.380;7.018;2023-07-31T07:20:00;16.50;99.90
39099;DHT22;24844;52.380;7.018;2023-07-31T07:22:26;16.20;99.90
39099;DHT22;24844;52.380;7.018;2023-07-31T07:24:53;16.30;99.90
39099;DHT22;24844;52.380;7.018;2023-07-31T07:27:18;16.40;99.90
39099;DHT22;24844;52.380;7.018;2023-07-31T07:29:45;16.80;99.90
39099;DHT22;24844;52.380;7.018;2023-07-31T07:32:11;16.50;99.90
39099;DHT22;24844;52.380;7.018;2023-07-31T07:34:37;16.50;99.90
39099;DHT22;24844;52.380;7.018;2023-07-31T07:37:03;16.60;99.90
39099;DHT22;24844;52.380;7.018;2023-07-31T07:39:29;16.50;99.90
39099;DHT22;24844;52.380;7.018;2023-07-31T07:41:54;16.30;99.90
39099;DHT22;24844;52.380;7.018;2023-07-31T07:44:20;16.10;99.90
39099;DHT22;24844;52.380;7.018;2023-07-31T07:46:45;16.00;99.90
39099;DHT22;24844;52.380;7.018;2023-07-31T07:49:11;16.10;99.90
39099;DHT22;24844;52.380;7.018;2023-07-31T07:51:37;16.40;99.90
39099;DHT22;24844;52.380;7.018;2023-07-31T07:54:02;16.60;99.90
39099;DHT22;24844;52.380;7.018;2023-07-31T07:56:28;16.70;99.90
39099;DHT22;24844;52.380;7.018;2023-07-31T07:58:55;16.20;99.90
39099;DHT22;24844;52.380;7.018;2023-07-31T08:01:21;16.40;99.90
39099;DHT22;24844;52.380;7.018;2023-07-31T08:03:47;16.80;99.90
39099;DHT22;24844;52.380;7.018;2023-07-31T08:06:13;16.20;99.90
39099;DHT22;24844;52.380;7.018;2023-07-31T08:08:38;16.40;99.90
39099;DHT22;24844;52.380;7.018;2023-07-31T08:11:04;16.60;99.90
39099;DHT22;24844;52.380;7.018;2023-07-31T08:13:30;16.70;99.90
39099;DHT22;24844;52.380;7.018;2023-07-31T08:15:55;16.60;99.90
39099;DHT22;24844;52.380;7.018;2023-07-31T08:18:21;16.60;99.90
39099;DHT22;24844;52.380;7.018;2023-07-31T08:20:47;16.40;99.90
39099;DHT22;24844;52.380;7.018;2023-07-31T08:23:13;16.50;99.90
39099;DHT22;24844;52.380;7.018;2023-07-31T08:25:38;16.80;99.90
39099;DHT22;24844;52.380;7.018;2023-07-31T08:28:05;17.30;99.90
39099;DHT22;24844;52.380;7.018;2023-07-31T08:30:31;16.90;99.90
39099;DHT22;24844;52.380;7.018;2023-07-31T08:32:56;17.30;99.90
39099;DHT22;24844;52.380;7.018;2023-07-31T08:35:23;17.10;99.90
39099;DHT22;24844;52.380;7.018;2023-07-31T08:37:49;17.30;99.90
39099;DHT22;24844;52.380;7.018;2023-07-31T08:40:15;17.20;99.90
39099;DHT22;24844;52.380;7.018;2023-07-31T08:42:49;17.40;99.90
39099;DHT22;24844;52.380;7.018;2023-07-31T08:45:16;17.20;99.90
39099;DHT22;24844;52.380;7.018;2023-07-31T08:47:48;17.60;99.90
39099;DHT22;24844;52.380;7.018;2023-07-31T08:50:16;17.60;99.90
39099;DHT22;24844;52.380;7.018;2023-07-31T08:52:42;18.10;99.90
39099;DHT22;24844;52.380;7.018;2023-07-31T08:55:08;17.50;99.90
39099;DHT22;24844;52.380;7.018;2023-07-31T08:57:36;17.80;99.90
39099;DHT22;24844;52.380;7.018;2023-07-31T09:00:04;17.60;99.90
39099;DHT22;24844;52.380;7.018;2023-07-31T09:02:44;18.00;99.90
39099;DHT22;24844;52.380;7.018;2023-07-31T09:05:11;17.70;99.90
39099;DHT22;24844;52.380;7.018;2023-07-31T09:07:37;17.70;99.90
39099;DHT22;24844;52.380;7.018;2023-07-31T09:10:04;17.70;99.90
39099;DHT22;24844;52.380;7.018;2023-07-31T09:12:31;17.00;99.90
39099;DHT22;24844;52.380;7.018;2023-07-31T09:14:57;17.00;99.90
39099;DHT22;24844;52.380;7.018;2023-07-31T09:17:34;17.50;99.90
39099;DHT22;24844;52.380;7.018;2023-07-31T09:20:17;17.60;99.90
39099;DHT22;24844;52.380;7.018;2023-07-31T09:22:44;17.70;99.90
39099;DHT22;24844;52.380;7.018;2023-07-31T09:25:21;17.80;99.90
39099;DHT22;24844;52.380;7.018;2023-07-31T09:27:52;17.50;99.90
39099;DHT22;24844;52.380;7.018;2023-07-31T09:30:18;18.00;99.90
39099;DHT22;24844;52.380;7.018;2023-07-31T09:32:45;17.60;99.90
39099;DHT22;24844;52.380;7.018;2023-07-31T09:35:20;18.00;99.90
39099;DHT22;24844;52.380;7.018;2023-07-31T09:37:53;18.20;99.90
39099;DHT22;24844;52.380;7.018;2023-07-31T09:40:47;17.60;99.90
39099;DHT22;24844;52.380;7.018;2023-07-31T09:43:17;17.70;99.90
39099;DHT22;24844;52.380;7.018;2023-07-31T09:45:44;17.90;99.90
39099;DHT22;24844;52.380;7.018;2023-07-31T09:48:10;17.80;99.90
39099;DHT22;24844;52.380;7.018;2023-07-31T09:50:38;17.90;99.90
39099;DHT22;24844;52.380;7.018;2023-07-31T09:53:05;17.40;99.90
39099;DHT22;24844;52.380;7.018;2023-07-31T09:55:31;17.50;99.90
39099;DHT22;24844;52.380;7.018;2023-07-31T09:58:00;17.70;99.90
39099;DHT22;24844;52.380;7.018;2023-07-31T10:00:29;18.10;99.90
39099;DHT22;24844;52.380;7.018;2023-07-31T10:02:58;17.80;99.90
39099;DHT22;24844;52.380;7.018;2023-07-31T10:05:31;17.60;99.90
39099;DHT22;24844;52.380;7.018;2023-07-31T10:07:59;18.10;99.90
39099;DHT22;24844;52.380;7.018;2023-07-31T10:10:26;18.00;99.90
39099;DHT22;24844;52.380;7.018;2023-07-31T10:12:53;18.30;99.90
39099;DHT22;24844;52.380;7.018;2023-07-31T10:15:19;18.20;99.90
39099;DHT22;24844;52.380;7.018;2023-07-31T10:17:49;17.80;99.90
39099;DHT22;24844;52.380;7.018;2023-07-31T10:20:16;18.20;99.90
39099;DHT22;24844;52.380;7.018;2023-07-31T10:22:45;18.00;99.90
39099;DHT22;24844;52.380;7.018;2023-07-31T10:25:11;18.60;99.90
39099;DHT22;24844;52.380;7.018;2023-07-31T10:27:39;18.40;99.90
39099;DHT22;24844;52.380;7.018;2023-07-31T10:30:08;18.70;99.90
39099;DHT22;24844;52.380;7.018;2023-07-31T10:32:34;18.60;99.90
39099;DHT22;24844;52.380;7.018;2023-07-31T10:35:02;18.40;99.90
39099;DHT22;24844;52.380;7.018;2023-07-31T10:37:30;18.00;99.90
39099;DHT22;24844;52.380;7.018;2023-07-31T10:40:09;18.00;99.90
39099;DHT22;24844;52.380;7.018;2023-07-31T10:42:36;18.70;99.90
39099;DHT22;24844;52.380;7.018;2023-07-31T10:45:07;18.70;99.90
39099;DHT22;24844;52.380;7.018;2023-07-31T10:47:45;18.70;99.90
39099;DHT22;24844;52.380;7.018;2023-07-31T10:50:20;18.30;99.90
39099;DHT22;24844;52.380;7.018;2023-07-31T10:52:51;18.60;99.90
39099;DHT22;24844;52.380;7.018;2023-07-31T10:57:51;18.70;99.90
39099;DHT22;24844;52.380;7.018;2023-07-31T11:00:19;18.90;99.90
39099;DHT22;24844;52.380;7.018;2023-07-31T11:03:05;18.60;99.90
39099;DHT22;24844;52.380;7.018;2023-07-31T11:08:25;18.80;99.90
39099;DHT22;24844;52.380;7.018;2023-07-31T11:11:05;18.70;99.90
39099;DHT22;24844;52.380;7.018;2023-07-31T11:13:33;18.70;99.90
39099;DHT22;24844;52.380;7.018;2023-07-31T11:16:00;18.50;99.90
39099;DHT22;24844;52.380;7.018;2023-07-31T11:18:26;18.90;99.90
39099;DHT22;24844;52.380;7.018;2023-07-31T11:20:53;18.60;99.90
39099;DHT22;24844;52.380;7.018;2023-07-31T11:23:19;18.90;99.90
39099;DHT22;24844;52.380;7.018;2023-07-31T11:25:45;18.70;99.90
39099;DHT22;24844;52.380;7.018;2023-07-31T11:28:13;18.70;99.90
39099;DHT22;24844;52.380;7.018;2023-07-31T11:30:40;18.60;99.90
39099;DHT22;24844;52.380;7.018;2023-07-31T11:33:07;19.00;99.90
39099;DHT22;24844;52.380;7.018;2023-07-31T11:35:44;18.50;99.90
39099;DHT22;24844;52.380;7.018;2023-07-31T11:38:12;18.80;99.90
39099;DHT22;24844;52.380;7.018;2023-07-31T11:40:44;18.80;99.90
39099;DHT22;24844;52.380;7.018;2023-07-31T11:43:10;18.50;99.90
39099;DHT22;24844;52.380;7.018;2023-07-31T11:45:48;18.50;99.90
39099;DHT22;24844;52.380;7.018;2023-07-31T11:48:25;18.60;99.90
39099;DHT22;24844;52.380;7.018;2023-07-31T11:50:53;18.70;99.90
39099;DHT22;24844;52.380;7.018;2023-07-31T11:53:24;18.50;99.90
39099;DHT22;24844;52.380;7.018;2023-07-31T11:55:51;18.50;99.90
39099;DHT22;24844;52.380;7.018;2023-07-31T11:58:18;18.50;99.90
39099;DHT22;24844;52.380;7.018;2023-07-31T12:00:45;18.80;99.90
39099;DHT22;24844;52.380;7.018;2023-07-31T12:03:11;18.40;99.90
39099;DHT22;24844;52.380;7.018;2023-07-31T12:05:38;18.80;99.90
39099;DHT22;24844;52.380;7.018;2023-07-31T12:08:09;18.90;99.90
39099;DHT22;24844;52.380;7.018;2023-07-31T12:10:38;19.10;99.90
39099;DHT22;24844;52.380;7.018;2023-07-31T12:13:20;18.90;99.90
39099;DHT22;24844;52.380;7.018;2023-07-31T12:15:47;18.90;99.90
39099;DHT22;24844;52.380;7.018;2023-07-31T12:18:14;19.30;99.90
39099;DHT22;24844;52.380;7.018;2023-07-31T12:20:45;18.50;99.90
39099;DHT22;24844;52.380;7.018;2023-07-31T12:23:17;18.90;99.90
39099;DHT22;24844;52.380;7.018;2023-07-31T12:25:43;18.80;99.90
39099;DHT22;24844;52.380;7.018;2023-07-31T12:28:10;19.00;99.90
39099;DHT22;24844;52.380;7.018;2023-07-31T12:30:40;19.10;99.90
39099;DHT22;24844;52.380;7.018;2023-07-31T12:33:15;19.10;99.90
39099;DHT22;24844;52.380;7.018;2023-07-31T12:35:44;19.70;99.90
39099;DHT22;24844;52.380;7.018;2023-07-31T12:38:09;19.30;99.90
39099;DHT22;24844;52.380;7.018;2023-07-31T12:40:38;19.00;99.90
39099;DHT22;24844;52.380;7.018;2023-07-31T12:43:05;19.20;99.90
39099;DHT22;24844;52.380;7.018;2023-07-31T12:45:31;18.90;99.90
39099;DHT22;24844;52.380;7.018;2023-07-31T12:47:58;19.20;99.90
39099;DHT22;24844;52.380;7.018;2023-07-31T12:50:23;18.80;99.90
39099;DHT22;24844;52.380;7.018;2023-07-31T12:52:49;18.50;99.90
39099;DHT22;24844;52.380;7.018;2023-07-31T12:55:15;19.00;99.90
39099;DHT22;24844;52.380;7.018;2023-07-31T12:57:41;19.20;99.90
39099;DHT22;24844;52.380;7.018;2023-07-31T13:00:08;18.90;99.90
39099;DHT22;24844;52.380;7.018;2023-07-31T13:02:33;19.20;99.90
39099;DHT22;24844;52.380;7.018;2023-07-31T13:04:59;18.90;99.90
39099;DHT22;24844;52.380;7.018;2023-07-31T13:07:24;19.10;99.90
39099;DHT22;24844;52.380;7.018;2023-07-31T13:09:51;19.20;99.90
39099;DHT22;24844;52.380;7.018;2023-07-31T13:12:19;19.00;99.90
39099;DHT22;24844;52.380;7.018;2023-07-31T13:14:45;18.50;99.90
39099;DHT22;24844;52.380;7.018;2023-07-31T13:17:10;18.80;99.90
39099;DHT22;24844;52.380;7.018;2023-07-31T13:19:36;18.90;99.90
39099;DHT22;24844;52.380;7.018;2023-07-31T13:22:02;18.80;99.90
39099;DHT22;24844;52.380;7.018;2023-07-31T13:24:27;18.60;99.90
39099;DHT22;24844;52.380;7.018;2023-07-31T13:26:53;18.80;99.90
39099;DHT22;24844;52.380;7.018;2023-07-31T13:29:18;18.80;99.90
39099;DHT22;24844;52.380;7.018;2023-07-31T13:31:44;18.90;99.90
39099;DHT22;24844;52.380;7.018;2023-07-31T13:34:11;18.70;99.90
39099;DHT22;24844;52.380;7.018;2023-07-31T13:36:36;18.70;99.90
39099;DHT22;24844;52.380;7.018;2023-07-31T13:39:02;18.60;99.90
39099;DHT22;24844;52.380;7.018;2023-07-31T13:41:28;18.60;99.90
39099;DHT22;24844;52.380;7.018;2023-07-31T13:43:54;19.00;99.90
39099;DHT22;24844;52.380;7.018;2023-07-31T13:46:19;18.70;99.90
39099;DHT22;24844;52.380;7.018;2023-07-31T13:48:45;18.80;99.90
39099;DHT22;24844;52.380;7.018;2023-07-31T13:51:10;18.80;99.90
39099;DHT22;24844;52.380;7.018;2023-07-31T13:53:36;18.90;99.90
39099;DHT22;24844;52.380;7.018;2023-07-31T13:56:02;18.90;99.90
39099;DHT22;24844;52.380;7.018;2023-07-31T13:58:27;19.10;99.90
39099;DHT22;24844;52.380;7.018;2023-07-31T14:00:53;18.90;99.90
39099;DHT22;24844;52.380;7.018;2023-07-31T14:03:19;18.90;99.90
39099;DHT22;24844;52.380;7.018;2023-07-31T14:05:45;19.00;99.90
39099;DHT22;24844;52.380;7.018;2023-07-31T14:08:11;19.00;99.90
39099;DHT22;24844;52.380;7.018;2023-07-31T14:10:37;19.30;99.90
39099;DHT22;24844;52.380;7.018;2023-07-31T14:13:02;19.00;99.90
39099;DHT22;24844;52.380;7.018;2023-07-31T14:15:33;19.30;99.90
39099;DHT22;24844;52.380;7.018;2023-07-31T14:18:08;19.20;99.90
39099;DHT22;24844;52.380;7.018;2023-07-31T14:20:34;19.10;99.90
39099;DHT22;24844;52.380;7.018;2023-07-31T14:23:00;19.20;99.90
39099;DHT22;24844;52.380;7.018;2023-07-31T14:25:26;19.30;99.90
39099;DHT22;24844;52.380;7.018;2023-07-31T14:27:55;19.40;99.90
39099;DHT22;24844;52.380;7.018;2023-07-31T14:30:20;19.40;99.90
39099;DHT22;24844;52.380;7.018;2023-07-31T14:32:46;19.50;99.90
39099;DHT22;24844;52.380;7.018;2023-07-31T14:35:13;19.60;99.90
39099;DHT22;24844;52.380;7.018;2023-07-31T14:37:47;19.40;99.90
39099;DHT22;24844;52.380;7.018;2023-07-31T14:40:13;19.30;99.90
39099;DHT22;24844;52.380;7.018;2023-07-31T14:42:39;19.40;99.90
39099;DHT22;24844;52.380;7.018;2023-07-31T14:45:06;19.50;99.90
39099;DHT22;24844;52.380;7.018;2023-07-31T14:47:32;19.80;99.90
39099;DHT22;24844;52.380;7.018;2023-07-31T14:50:01;19.70;99.90
39099;DHT22;24844;52.380;7.018;2023-07-31T14:52:26;19.50;99.90
39099;DHT22;24844;52.380;7.018;2023-07-31T14:54:52;19.40;99.90
39099;DHT22;24844;52.380;7.018;2023-07-31T14:57:18;19.70;99.90
39099;DHT22;24844;52.380;7.018;2023-07-31T14:59:45;19.60;99.90
39099;DHT22;24844;52.380;7.018;2023-07-31T15:02:11;19.60;99.90
39099;DHT22;24844;52.380;7.018;2023-07-31T15:04:37;19.70;99.90
39099;DHT22;24844;52.380;7.018;2023-07-31T15:07:03;19.60;99.90
39099;DHT22;24844;52.380;7.018;2023-07-31T15:10:08;19.40;99.90
39099;DHT22;24844;52.380;7.018;2023-07-31T15:12:39;19.40;99.90
39099;DHT22;24844;52.380;7.018;2023-07-31T15:15:06;19.50;99.90
39099;DHT22;24844;52.380;7.018;2023-07-31T15:17:31;19.20;99.90
39099;DHT22;24844;52.380;7.018;2023-07-31T15:19:57;18.90;99.90
39099;DHT22;24844;52.380;7.018;2023-07-31T15:22:23;18.90;99.90
39099;DHT22;24844;52.380;7.018;2023-07-31T15:24:50;18.70;99.90
39099;DHT22;24844;52.380;7.018;2023-07-31T15:27:15;18.70;99.90
39099;DHT22;24844;52.380;7.018;2023-07-31T15:29:41;18.50;99.90
39099;DHT22;24844;52.380;7.018;2023-07-31T15:32:07;18.60;99.90
39099;DHT22;24844;52.380;7.018;2023-07-31T15:34:33;18.70;99.90
39099;DHT22;24844;52.380;7.018;2023-07-31T15:36:58;18.80;99.90
39099;DHT22;24844;52.380;7.018;2023-07-31T15:39:24;18.50;99.90